Time;durP1;ratioP1;P1;durP2;ratioP2;P2;SDS_P1;SDS_P2;PMS_P1;PMS_P2;Temp;Humidity;BMP_temperature;BMP_pressure;BME280_temperature;BME280_humidity;BME280_pressure;Samples;Min_cycle;Max_cycle;Signal;HPM_P1;HPM_P2
2021/11/20 00:00:36;;;;;;;4.97;4.07;;;13.10;99.90;;;;;;5032220;28;20528;-78
2021/11/20 00:03:04;;;;;;;4.87;4.47;;;13.10;99.90;;;;;;5032159;28;20539;-78
2021/11/20 00:05:35;;;;;;;7.23;4.30;;;13.10;99.90;;;;;;5032012;28;20532;-78
2021/11/20 00:08:01;;;;;;;9.70;4.77;;;13.10;99.90;;;;;;5031841;28;20972;-79
2021/11/20 00:10:31;;;;;;;6.30;4.30;;;13.10;99.90;;;;;;5032115;28;20450;-79
2021/11/20 00:12:59;;;;;;;5.10;4.30;;;13.10;99.90;;;;;;5032032;28;20484;-78
2021/11/20 00:15:33;;;;;;;7.53;4.43;;;13.10;99.90;;;;;;5031899;28;20520;-78
2021/11/20 00:18:00;;;;;;;5.90;4.40;;;13.10;99.90;;;;;;5031881;28;20532;-79
2021/11/20 00:20:29;;;;;;;8.80;4.47;;;13.10;99.90;;;;;;5031867;28;20484;-79
2021/11/20 00:22:58;;;;;;;7.23;4.57;;;13.10;99.90;;;;;;5032154;28;20695;-79
2021/11/20 00:25:28;;;;;;;5.57;4.13;;;13.10;99.90;;;;;;5032181;28;20540;-79
2021/11/20 00:27:57;;;;;;;6.43;4.67;;;13.10;99.90;;;;;;5032039;28;20481;-79
2021/11/20 00:30:29;;;;;;;5.50;4.23;;;13.10;99.90;;;;;;5031476;28;20445;-79
2021/11/20 00:33:01;;;;;;;6.47;4.90;;;13.10;99.90;;;;;;5031717;28;20453;-79
2021/11/20 00:35:38;;;;;;;6.77;4.53;;;13.10;99.90;;;;;;5031930;28;20895;-79
2021/11/20 00:38:09;;;;;;;4.73;4.20;;;13.10;99.90;;;;;;5030114;28;20483;-83
2021/11/20 00:40:39;;;;;;;6.13;4.20;;;13.10;99.90;;;;;;5029645;28;20472;-79
2021/11/20 00:43:06;;;;;;;7.37;4.70;;;13.10;99.90;;;;;;5031845;28;20553;-79
2021/11/20 00:45:33;;;;;;;5.83;4.87;;;13.10;99.90;;;;;;5031939;28;20519;-79
2021/11/20 00:48:00;;;;;;;7.60;4.90;;;13.10;99.90;;;;;;5035701;28;20485;-79
2021/11/20 00:50:27;;;;;;;5.80;4.40;;;13.10;99.90;;;;;;5035682;28;20548;-79
2021/11/20 00:52:54;;;;;;;6.60;5.23;;;13.10;99.90;;;;;;5035850;28;20541;-79
2021/11/20 00:55:26;;;;;;;5.87;4.60;;;13.00;99.90;;;;;;5035061;28;20513;-79
2021/11/20 00:57:54;;;;;;;6.00;4.63;;;13.10;99.90;;;;;;5035639;28;20861;-79
2021/11/20 01:00:23;;;;;;;6.40;4.57;;;13.00;99.90;;;;;;5035503;28;20886;-79
2021/11/20 01:02:50;;;;;;;7.50;4.50;;;13.00;99.90;;;;;;5035473;28;20453;-79
2021/11/20 01:05:17;;;;;;;8.83;5.23;;;13.00;99.90;;;;;;5035668;28;20457;-79
2021/11/20 01:07:44;;;;;;;8.57;5.87;;;13.10;99.90;;;;;;5035213;28;20540;-79
2021/11/20 01:10:14;;;;;;;7.83;4.57;;;13.00;99.90;;;;;;5035109;28;20540;-79
2021/11/20 01:12:42;;;;;;;6.53;4.57;;;13.00;99.90;;;;;;5035067;28;20477;-79
2021/11/20 01:15:17;;;;;;;7.87;4.03;;;13.10;99.90;;;;;;5035302;28;20472;-79
2021/11/20 01:17:44;;;;;;;9.10;4.37;;;13.10;99.90;;;;;;5026348;28;20870;-82
2021/11/20 01:20:11;;;;;;;5.37;4.20;;;13.10;99.90;;;;;;5035293;28;20485;-78
2021/11/20 01:22:39;;;;;;;5.87;4.00;;;13.10;99.90;;;;;;5034586;28;20906;-78
2021/11/20 01:25:07;;;;;;;10.97;4.20;;;13.10;99.90;;;;;;5034672;28;20871;-78
2021/11/20 01:27:34;;;;;;;6.93;5.17;;;13.00;99.90;;;;;;5034812;28;20992;-79
2021/11/20 01:30:04;;;;;;;7.50;4.40;;;13.10;99.90;;;;;;5034454;28;21023;-78
2021/11/20 01:32:31;;;;;;;5.53;4.10;;;13.10;99.90;;;;;;5034959;28;20511;-78
2021/11/20 01:34:58;;;;;;;6.37;4.40;;;13.10;99.90;;;;;;5034650;28;20567;-78
2021/11/20 01:37:24;;;;;;;6.80;5.37;;;13.10;99.90;;;;;;5034643;28;20449;-78
2021/11/20 01:39:51;;;;;;;4.53;4.17;;;13.00;99.90;;;;;;5034521;28;21010;-78
2021/11/20 01:42:20;;;;;;;5.00;4.13;;;13.10;99.90;;;;;;5034865;28;20945;-79
2021/11/20 01:44:49;;;;;;;12.37;5.30;;;13.10;99.90;;;;;;5034718;28;20484;-78
2021/11/20 01:47:21;;;;;;;5.73;3.97;;;13.00;99.90;;;;;;5034683;28;20964;-79
2021/11/20 01:49:51;;;;;;;4.37;3.97;;;13.00;99.90;;;;;;5017588;28;20476;-78
2021/11/20 01:52:30;;;;;;;4.93;3.67;;;13.00;99.90;;;;;;5033290;28;20524;-78
2021/11/20 01:55:02;;;;;;;5.80;3.80;;;13.00;99.90;;;;;;5034242;28;20507;-78
2021/11/20 01:57:34;;;;;;;6.77;3.93;;;13.00;99.90;;;;;;5034208;28;20485;-79
2021/11/20 02:00:09;;;;;;;5.63;3.33;;;13.00;99.90;;;;;;5034700;28;20540;-79
2021/11/20 02:02:41;;;;;;;4.80;3.73;;;13.00;99.90;;;;;;5034948;28;20472;-79
2021/11/20 02:05:13;;;;;;;6.40;3.60;;;13.00;99.90;;;;;;5034948;28;20485;-80
2021/11/20 02:07:43;;;;;;;8.63;3.20;;;13.00;99.90;;;;;;5034930;28;20473;-79
2021/11/20 02:10:15;;;;;;;4.90;3.40;;;13.00;99.90;;;;;;5034676;28;20469;-78
2021/11/20 02:12:44;;;;;;;6.50;3.13;;;13.00;99.90;;;;;;5034577;28;20481;-78
2021/11/20 02:15:22;;;;;;;3.50;3.20;;;13.00;99.90;;;;;;5034247;28;20485;-78
2021/11/20 02:17:52;;;;;;;4.97;3.87;;;13.00;99.90;;;;;;5019272;28;20449;-78
2021/11/20 02:20:22;;;;;;;5.03;3.47;;;13.00;99.90;;;;;;5034673;28;20767;-78
2021/11/20 02:22:48;;;;;;;4.13;3.80;;;13.00;99.90;;;;;;5034860;28;20532;-78
2021/11/20 02:25:15;;;;;;;5.20;3.00;;;13.00;99.90;;;;;;5034536;28;20544;-78
2021/11/20 02:27:46;;;;;;;4.80;3.53;;;13.00;99.90;;;;;;5034472;28;20495;-78
2021/11/20 02:30:18;;;;;;;4.90;3.20;;;13.00;99.90;;;;;;5034460;28;20957;-78
2021/11/20 02:32:46;;;;;;;7.50;3.67;;;13.00;99.90;;;;;;5034386;28;20485;-78
2021/11/20 02:35:15;;;;;;;3.57;2.87;;;13.00;99.90;;;;;;5034103;28;20481;-78
2021/11/20 02:37:43;;;;;;;3.40;2.70;;;13.00;99.90;;;;;;5034040;28;20461;-78
2021/11/20 02:40:10;;;;;;;7.50;3.37;;;13.00;99.90;;;;;;5033887;28;20536;-79
2021/11/20 02:42:37;;;;;;;3.17;2.97;;;13.00;99.90;;;;;;5034070;28;20449;-78
2021/11/20 02:45:17;;;;;;;4.67;3.00;;;12.90;99.90;;;;;;5033889;28;20465;-78
2021/11/20 02:47:43;;;;;;;3.47;3.17;;;12.90;99.90;;;;;;5017543;28;20477;-78
2021/11/20 02:50:11;;;;;;;2.50;2.40;;;12.90;99.90;;;;;;5033970;28;20480;-78
2021/11/20 02:52:37;;;;;;;4.03;3.37;;;12.90;99.90;;;;;;5033729;28;20531;-78
2021/11/20 02:55:05;;;;;;;3.47;3.13;;;12.90;99.90;;;;;;5033761;28;20477;-78
2021/11/20 02:57:37;;;;;;;3.23;2.80;;;12.90;99.90;;;;;;5033727;28;20477;-78
2021/11/20 03:00:06;;;;;;;2.90;2.50;;;12.80;99.90;;;;;;5033734;28;20536;-78
2021/11/20 03:02:34;;;;;;;2.93;2.60;;;12.90;99.90;;;;;;5033522;28;20544;-78
2021/11/20 03:05:01;;;;;;;4.57;3.70;;;12.90;99.90;;;;;;5033430;28;20485;-78
2021/11/20 03:07:27;;;;;;;2.60;2.40;;;12.90;99.90;;;;;;5033207;28;20556;-78
2021/11/20 03:09:54;;;;;;;5.80;3.20;;;13.00;99.90;;;;;;5033288;28;20544;-78
2021/11/20 03:12:20;;;;;;;6.70;3.17;;;13.00;99.90;;;;;;5033336;28;20540;-78
2021/11/20 03:14:47;;;;;;;3.33;3.00;;;12.90;99.90;;;;;;5033404;28;20592;-78
2021/11/20 03:17:13;;;;;;;3.60;2.60;;;12.90;99.90;;;;;;5033362;28;20481;-78
2021/11/20 03:19:44;;;;;;;3.23;2.90;;;12.80;99.90;;;;;;5033001;28;20544;-79
2021/11/20 03:22:13;;;;;;;3.20;2.63;;;12.80;99.90;;;;;;5033283;28;20541;-79
2021/11/20 03:24:40;;;;;;;2.80;2.60;;;12.70;99.90;;;;;;5033261;28;20515;-78
2021/11/20 03:27:07;;;;;;;2.83;2.53;;;12.70;99.90;;;;;;5032975;28;20540;-78
2021/11/20 03:29:34;;;;;;;3.20;2.80;;;12.70;99.90;;;;;;5032955;28;20536;-78
2021/11/20 03:32:02;;;;;;;3.43;3.13;;;12.70;99.90;;;;;;5032749;28;20573;-78
2021/11/20 03:34:30;;;;;;;5.00;3.10;;;12.60;99.90;;;;;;5032833;28;20480;-78
2021/11/20 03:36:58;;;;;;;5.47;3.10;;;12.60;99.90;;;;;;5033031;28;20540;-79
2021/11/20 03:39:25;;;;;;;4.77;2.53;;;12.60;99.90;;;;;;5032949;28;20532;-79
2021/11/20 03:41:52;;;;;;;3.47;3.17;;;12.60;99.90;;;;;;5032700;28;20473;-78
2021/11/20 03:44:19;;;;;;;3.10;2.80;;;12.70;99.90;;;;;;5032801;28;21003;-78
2021/11/20 03:46:46;;;;;;;4.80;3.07;;;12.60;99.90;;;;;;5032538;28;20500;-78
2021/11/20 03:49:13;;;;;;;7.33;2.57;;;12.60;99.90;;;;;;5033082;28;20540;-79
2021/11/20 03:51:40;;;;;;;2.90;2.60;;;12.60;99.90;;;;;;5032794;28;20541;-78
2021/11/20 03:54:08;;;;;;;3.57;3.20;;;12.60;99.90;;;;;;5032794;28;20993;-79
2021/11/20 03:56:35;;;;;;;3.10;2.80;;;12.60;99.90;;;;;;5032399;28;20584;-79
2021/11/20 03:59:02;;;;;;;3.77;3.03;;;12.60;99.90;;;;;;5032578;28;20449;-79
2021/11/20 04:01:30;;;;;;;3.10;2.60;;;12.60;99.90;;;;;;5032501;28;20473;-79
2021/11/20 04:03:57;;;;;;;2.77;2.57;;;12.60;99.90;;;;;;5032593;28;20472;-79
2021/11/20 04:06:25;;;;;;;3.50;2.90;;;12.60;99.90;;;;;;5032683;28;20866;-78
2021/11/20 04:08:53;;;;;;;5.60;2.43;;;12.60;99.90;;;;;;5032513;28;20477;-78
2021/11/20 04:11:23;;;;;;;2.53;2.33;;;12.60;99.90;;;;;;5032363;28;20453;-78
2021/11/20 04:13:51;;;;;;;2.80;2.40;;;12.60;99.90;;;;;;5032248;28;20496;-79
2021/11/20 04:16:20;;;;;;;2.47;2.27;;;12.60;99.90;;;;;;5032488;28;20517;-79
2021/11/20 04:18:46;;;;;;;3.77;2.63;;;12.60;99.90;;;;;;5032537;28;20537;-79
2021/11/20 04:21:14;;;;;;;3.97;2.50;;;12.60;99.90;;;;;;5031951;28;20872;-79
2021/11/20 04:23:41;;;;;;;4.27;2.70;;;12.60;99.90;;;;;;5032271;28;20454;-79
2021/11/20 04:26:08;;;;;;;3.67;2.20;;;12.60;99.90;;;;;;5032439;28;20445;-79
2021/11/20 04:28:36;;;;;;;2.30;2.10;;;12.60;99.90;;;;;;5032171;28;20928;-79
2021/11/20 04:31:03;;;;;;;2.53;2.33;;;12.60;99.90;;;;;;5032294;28;20924;-79
2021/11/20 04:33:30;;;;;;;3.60;2.30;;;12.60;99.90;;;;;;5032316;28;20503;-79
2021/11/20 04:35:57;;;;;;;3.33;2.60;;;12.60;99.90;;;;;;5032292;28;20519;-78
2021/11/20 04:38:24;;;;;;;2.33;1.80;;;12.60;99.90;;;;;;5032265;28;20983;-78
2021/11/20 04:40:50;;;;;;;4.73;2.30;;;12.60;99.90;;;;;;5032030;28;20523;-79
2021/11/20 04:43:17;;;;;;;3.30;2.20;;;12.60;99.90;;;;;;5032245;28;20540;-79
2021/11/20 04:45:47;;;;;;;2.80;2.23;;;12.60;99.90;;;;;;5020446;28;20496;-79
2021/11/20 04:48:14;;;;;;;2.20;2.00;;;12.70;99.90;;;;;;5032399;28;20441;-78
2021/11/20 04:50:41;;;;;;;1.73;1.63;;;12.60;99.90;;;;;;5032276;28;20445;-78
2021/11/20 04:53:08;;;;;;;3.27;3.00;;;12.60;99.90;;;;;;5032451;28;20475;-78
2021/11/20 04:55:35;;;;;;;2.27;2.07;;;12.60;99.90;;;;;;5031804;28;20493;-79
2021/11/20 04:58:01;;;;;;;4.87;2.67;;;12.60;99.90;;;;;;5032169;28;20558;-78
2021/11/20 05:00:32;;;;;;;2.83;2.30;;;12.60;99.90;;;;;;5032468;28;20861;-79
2021/11/20 05:03:05;;;;;;;2.80;2.10;;;12.70;99.90;;;;;;5032009;28;20445;-78
2021/11/20 05:05:32;;;;;;;2.50;2.30;;;12.70;99.90;;;;;;5032130;28;20456;-78
2021/11/20 05:07:58;;;;;;;2.83;2.30;;;12.70;99.90;;;;;;5031741;28;20499;-78
2021/11/20 05:10:25;;;;;;;2.60;2.13;;;12.70;99.90;;;;;;5032231;28;20925;-79
2021/11/20 05:12:52;;;;;;;3.70;1.80;;;12.70;99.90;;;;;;5032090;28;20469;-80
2021/11/20 05:15:19;;;;;;;3.43;2.20;;;12.70;99.90;;;;;;5031865;28;20560;-80
2021/11/20 05:17:45;;;;;;;2.00;1.90;;;12.70;99.90;;;;;;5031739;28;20485;-80
2021/11/20 05:20:14;;;;;;;4.23;2.53;;;12.70;99.90;;;;;;5031813;28;20445;-79
2021/11/20 05:22:41;;;;;;;3.33;2.90;;;12.70;99.90;;;;;;5031560;28;20479;-79
2021/11/20 05:25:08;;;;;;;3.63;3.03;;;12.70;99.90;;;;;;5032125;28;21018;-79
2021/11/20 05:27:35;;;;;;;13.90;4.83;;;12.70;99.90;;;;;;5031963;28;20489;-79
2021/11/20 05:30:05;;;;;;;3.03;2.23;;;12.60;99.90;;;;;;5031808;28;20495;-79
2021/11/20 05:32:32;;;;;;;2.70;2.50;;;12.60;99.90;;;;;;5032472;28;20457;-79
2021/11/20 05:34:59;;;;;;;2.63;2.43;;;12.60;99.90;;;;;;5035339;28;20561;-79
2021/11/20 05:37:27;;;;;;;6.13;2.37;;;12.60;99.90;;;;;;5044746;28;20939;-78
2021/11/20 05:39:53;;;;;;;3.80;2.57;;;12.60;99.90;;;;;;5053619;28;20547;-79
2021/11/20 05:42:20;;;;;;;3.40;2.60;;;12.60;99.90;;;;;;5051316;28;20539;-78
2021/11/20 05:44:47;;;;;;;6.30;2.70;;;12.60;99.90;;;;;;5033427;28;20553;-78
2021/11/20 05:47:13;;;;;;;3.13;2.80;;;12.60;99.90;;;;;;5034051;28;20485;-78
2021/11/20 05:49:42;;;;;;;6.33;5.63;;;12.60;99.90;;;;;;5034307;28;20547;-79
2021/11/20 05:52:09;;;;;;;3.40;3.03;;;12.60;99.90;;;;;;5034140;28;20481;-79
2021/11/20 05:54:38;;;;;;;5.90;2.67;;;12.60;99.90;;;;;;5035451;28;20522;-79
2021/11/20 05:57:05;;;;;;;4.70;2.30;;;12.60;99.90;;;;;;5034917;28;20492;-79
2021/11/20 05:59:31;;;;;;;2.50;2.30;;;12.60;99.90;;;;;;5035235;28;20545;-78
2021/11/20 06:01:58;;;;;;;3.83;2.80;;;12.60;99.90;;;;;;5035062;28;20545;-79
2021/11/20 06:04:26;;;;;;;2.37;2.03;;;12.60;99.90;;;;;;5034990;28;20500;-79
2021/11/20 06:06:53;;;;;;;5.03;2.20;;;12.60;99.90;;;;;;5035274;28;20453;-79
2021/11/20 06:09:20;;;;;;;3.90;2.57;;;12.60;99.90;;;;;;5035078;28;20540;-79
2021/11/20 06:11:48;;;;;;;2.60;2.40;;;12.60;99.90;;;;;;5035326;28;20488;-79
2021/11/20 06:14:14;;;;;;;2.60;2.40;;;12.60;99.90;;;;;;5035231;28;20543;-79
2021/11/20 06:16:41;;;;;;;2.53;2.33;;;12.60;99.90;;;;;;5034884;28;20477;-79
2021/11/20 06:19:09;;;;;;;4.30;3.90;;;12.60;99.90;;;;;;5034933;28;20552;-78
2021/11/20 06:21:36;;;;;;;4.57;2.40;;;12.60;99.90;;;;;;5034924;28;20460;-79
2021/11/20 06:24:03;;;;;;;2.47;2.37;;;12.60;99.90;;;;;;5034862;28;20449;-79
2021/11/20 06:26:31;;;;;;;3.47;2.40;;;12.60;99.90;;;;;;5034832;28;20485;-79
2021/11/20 06:28:59;;;;;;;2.60;2.07;;;12.60;99.90;;;;;;5034681;28;20453;-78
2021/11/20 06:31:25;;;;;;;3.57;2.40;;;12.60;99.90;;;;;;5034560;28;20544;-78
2021/11/20 06:33:52;;;;;;;2.80;2.10;;;12.50;99.90;;;;;;5034885;28;20899;-79
2021/11/20 06:36:21;;;;;;;2.17;1.97;;;12.50;99.90;;;;;;5034459;28;20488;-78
2021/11/20 06:38:48;;;;;;;4.07;2.77;;;12.50;99.90;;;;;;5034445;28;20617;-78
2021/11/20 06:41:15;;;;;;;4.10;2.70;;;12.50;99.90;;;;;;5034533;28;20507;-78
2021/11/20 06:43:41;;;;;;;2.17;2.03;;;12.50;99.90;;;;;;5033852;28;20536;-78
2021/11/20 06:46:12;;;;;;;3.93;2.50;;;12.50;99.90;;;;;;5034088;28;20555;-78
2021/11/20 06:48:40;;;;;;;2.27;2.07;;;12.50;99.90;;;;;;5034327;28;20489;-79
2021/11/20 06:51:08;;;;;;;2.77;2.57;;;12.40;99.90;;;;;;5034534;28;20445;-78
2021/11/20 06:53:37;;;;;;;2.60;2.40;;;12.40;99.90;;;;;;5054042;28;20944;-78
2021/11/20 06:56:05;;;;;;;5.17;2.30;;;12.50;99.90;;;;;;5053885;28;21042;-78
2021/11/20 07:01:19;;;;;;;3.10;2.73;;;12.40;99.90;;;;;;5053953;28;21109;-78
2021/11/20 07:03:49;;;;;;;3.10;2.30;;;12.40;99.90;;;;;;5054008;28;20476;-78
2021/11/20 07:06:18;;;;;;;3.27;3.00;;;12.40;99.90;;;;;;5053992;28;20472;-78
2021/11/20 07:08:45;;;;;;;3.30;2.70;;;12.40;99.90;;;;;;5054007;28;20543;-78
2021/11/20 07:11:12;;;;;;;3.33;2.63;;;12.40;99.90;;;;;;5053591;28;20490;-78
2021/11/20 07:13:38;;;;;;;5.53;2.70;;;12.30;99.90;;;;;;5053901;28;20495;-78
2021/11/20 07:16:06;;;;;;;8.27;3.80;;;12.40;99.90;;;;;;5053607;28;20567;-79
2021/11/20 07:18:34;;;;;;;3.30;2.57;;;12.30;99.90;;;;;;5053783;28;20451;-79
2021/11/20 07:21:02;;;;;;;6.93;3.30;;;12.30;99.90;;;;;;5053733;28;20543;-79
2021/11/20 07:23:29;;;;;;;3.50;2.83;;;12.30;99.90;;;;;;5053622;28;20453;-80
2021/11/20 07:25:55;;;;;;;5.63;2.93;;;12.30;99.90;;;;;;5053801;28;20456;-80
2021/11/20 07:28:22;;;;;;;6.47;3.33;;;12.30;99.90;;;;;;5053904;28;20484;-80
2021/11/20 07:30:49;;;;;;;3.43;2.43;;;12.30;99.90;;;;;;5053582;28;20559;-82
2021/11/20 07:33:15;;;;;;;8.73;3.00;;;12.30;99.90;;;;;;5053755;28;20566;-80
2021/11/20 07:35:46;;;;;;;5.10;3.60;;;12.30;99.90;;;;;;5053461;28;20569;-80
2021/11/20 07:38:15;;;;;;;4.50;3.37;;;12.30;99.90;;;;;;5053507;28;20531;-80
2021/11/20 07:40:43;;;;;;;3.70;3.10;;;12.20;99.90;;;;;;5035737;28;20527;-80
2021/11/20 07:43:10;;;;;;;4.17;3.50;;;12.30;99.90;;;;;;5032489;28;20549;-81
2021/11/20 07:45:37;;;;;;;3.90;3.30;;;12.30;99.90;;;;;;5029620;28;20850;-81
2021/11/20 07:48:05;;;;;;;4.53;3.77;;;12.30;99.90;;;;;;5032402;28;20481;-79
2021/11/20 07:50:31;;;;;;;4.30;4.00;;;12.30;99.90;;;;;;5032188;28;20477;-80
2021/11/20 07:52:59;;;;;;;5.53;3.40;;;12.30;99.90;;;;;;5032717;28;20913;-81
2021/11/20 07:55:26;;;;;;;4.70;3.27;;;12.40;99.90;;;;;;5032350;28;20469;-81
2021/11/20 07:57:53;;;;;;;7.10;5.70;;;12.40;99.90;;;;;;5033194;28;20560;-81
2021/11/20 08:00:21;;;;;;;3.87;3.57;;;12.40;99.90;;;;;;5033056;28;20481;-81
2021/11/20 08:02:48;;;;;;;5.50;4.03;;;12.40;99.90;;;;;;5033046;28;20540;-80
2021/11/20 08:05:16;;;;;;;5.90;4.40;;;12.40;99.90;;;;;;5032830;28;20544;-82
2021/11/20 08:07:42;;;;;;;6.13;4.00;;;12.40;99.90;;;;;;5032822;28;20453;-82
2021/11/20 08:10:14;;;;;;;6.40;4.20;;;12.40;99.90;;;;;;5032609;28;21045;-82
2021/11/20 08:12:41;;;;;;;4.07;3.80;;;12.40;99.90;;;;;;5032737;28;20456;-80
2021/11/20 08:15:08;;;;;;;7.03;4.17;;;12.40;99.90;;;;;;5032760;28;20492;-80
2021/11/20 08:17:36;;;;;;;5.53;3.90;;;12.50;99.90;;;;;;5032681;28;20560;-80
2021/11/20 08:20:03;;;;;;;4.47;4.00;;;12.40;99.90;;;;;;5033250;28;20523;-81
2021/11/20 08:22:30;;;;;;;5.90;5.40;;;12.50;99.90;;;;;;5032731;28;20935;-80
2021/11/20 08:24:56;;;;;;;5.83;4.40;;;12.50;99.90;;;;;;5032874;28;20968;-80
2021/11/20 08:27:24;;;;;;;6.10;5.50;;;12.50;99.90;;;;;;5032592;28;20968;-81
2021/11/20 08:29:51;;;;;;;5.90;4.17;;;12.50;99.90;;;;;;5032775;28;20548;-82
2021/11/20 08:32:17;;;;;;;5.37;4.87;;;12.60;99.90;;;;;;5032440;28;20489;-81
2021/11/20 08:34:45;;;;;;;5.83;4.80;;;12.60;99.90;;;;;;5032646;28;20517;-81
2021/11/20 08:37:12;;;;;;;6.53;4.90;;;12.60;99.90;;;;;;5032770;28;20837;-80
2021/11/20 08:39:39;;;;;;;5.50;4.40;;;12.60;99.90;;;;;;5032877;28;20535;-80
2021/11/20 08:42:07;;;;;;;7.80;5.20;;;12.70;99.90;;;;;;5032679;28;20485;-81
2021/11/20 08:44:35;;;;;;;6.03;4.30;;;12.70;99.90;;;;;;5032800;28;20476;-81
2021/11/20 08:47:03;;;;;;;7.63;6.40;;;12.80;99.90;;;;;;5032479;28;20472;-81
2021/11/20 08:49:30;;;;;;;9.87;4.37;;;12.90;99.90;;;;;;5032945;28;20449;-81
2021/11/20 08:51:56;;;;;;;7.30;5.23;;;12.90;99.90;;;;;;5032796;28;20480;-81
2021/11/20 08:54:23;;;;;;;6.20;5.20;;;12.90;99.90;;;;;;5032540;28;20489;-80
2021/11/20 08:56:53;;;;;;;7.20;5.13;;;12.90;99.90;;;;;;5032146;28;20505;-81
2021/11/20 08:59:22;;;;;;;8.40;4.93;;;13.00;99.90;;;;;;5032563;28;20548;-82
2021/11/20 09:01:54;;;;;;;8.30;4.40;;;13.00;99.90;;;;;;5032591;28;20457;-82
2021/11/20 09:04:25;;;;;;;7.90;5.50;;;13.10;99.90;;;;;;5032761;28;20449;-82
2021/11/20 09:07:00;;;;;;;8.27;5.43;;;13.10;99.90;;;;;;5033878;28;20454;-82
2021/11/20 09:09:33;;;;;;;5.53;3.80;;;13.20;99.90;;;;;;5036529;28;20452;-81
2021/11/20 09:12:03;;;;;;;5.53;3.87;;;13.30;99.90;;;;;;5036096;28;20481;-82
2021/11/20 09:14:42;;;;;;;7.77;4.17;;;13.50;99.90;;;;;;5036366;28;20449;-82
2021/11/20 09:17:12;;;;;;;5.20;4.47;;;13.50;99.90;;;;;;5035836;28;20572;-82
2021/11/20 09:19:39;;;;;;;4.30;3.90;;;13.60;99.90;;;;;;5035957;28;20451;-82
2021/11/20 09:22:06;;;;;;;4.70;3.23;;;13.70;99.90;;;;;;5035759;28;20532;-82
2021/11/20 09:24:35;;;;;;;7.53;4.50;;;13.80;99.90;;;;;;5035730;28;20548;-82
2021/11/20 09:27:02;;;;;;;4.90;4.40;;;13.90;99.90;;;;;;5035910;28;20489;-82
2021/11/20 09:29:30;;;;;;;6.67;4.20;;;13.90;99.90;;;;;;5035966;28;20493;-82
2021/11/20 09:31:57;;;;;;;7.53;3.73;;;14.00;99.90;;;;;;5035886;28;20791;-82
2021/11/20 09:34:25;;;;;;;5.47;3.63;;;14.00;99.90;;;;;;5035830;28;20485;-82
2021/11/20 09:36:56;;;;;;;4.20;3.73;;;14.00;99.90;;;;;;5035478;28;20517;-81
2021/11/20 09:39:25;;;;;;;5.00;3.97;;;14.00;99.90;;;;;;5035796;28;20852;-81
2021/11/20 09:42:07;;;;;;;6.27;2.90;;;14.10;99.90;;;;;;5035620;28;20456;-80
2021/11/20 09:44:39;;;;;;;5.60;3.80;;;14.00;99.90;;;;;;5034075;28;20445;-81
2021/11/20 09:47:11;;;;;;;8.10;3.30;;;14.00;99.90;;;;;;5035237;28;20481;-81
2021/11/20 09:49:44;;;;;;;4.33;3.93;;;13.90;99.90;;;;;;5035663;28;20572;-80
2021/11/20 09:52:11;;;;;;;7.73;3.17;;;13.80;99.90;;;;;;5035439;28;20512;-81
2021/11/20 09:54:43;;;;;;;4.47;3.57;;;13.80;99.90;;;;;;5035370;28;20543;-81
2021/11/20 09:57:22;;;;;;;7.10;3.60;;;13.80;99.90;;;;;;5033157;28;20568;-81
2021/11/20 09:59:52;;;;;;;9.00;4.43;;;13.80;99.90;;;;;;5032300;28;20449;-80
2021/11/20 10:02:22;;;;;;;3.37;2.97;;;13.80;99.90;;;;;;5029572;28;20809;-82
2021/11/20 10:04:55;;;;;;;5.27;3.33;;;13.80;99.90;;;;;;5034440;28;20453;-82
2021/11/20 10:07:29;;;;;;;9.20;3.13;;;13.80;99.90;;;;;;5032674;28;20480;-82
2021/11/20 10:10:01;;;;;;;5.60;2.90;;;13.80;99.90;;;;;;5034678;28;20468;-82
2021/11/20 10:12:34;;;;;;;7.10;2.90;;;13.80;99.90;;;;;;5034976;28;20445;-82
2021/11/20 10:15:04;;;;;;;3.13;2.63;;;13.70;99.90;;;;;;5035274;28;20445;-80
2021/11/20 10:17:40;;;;;;;5.13;3.17;;;13.70;99.90;;;;;;5032381;28;20577;-82
2021/11/20 10:20:31;;;;;;;10.70;4.40;;;13.60;99.90;;;;;;5032209;28;20453;-81
2021/11/20 10:23:03;;;;;;;4.57;2.83;;;13.70;99.90;;;;;;5034187;28;20477;-79
2021/11/20 10:25:50;;;;;;;3.23;2.93;;;13.80;99.90;;;;;;5034453;28;20449;-80
2021/11/20 10:28:38;;;;;;;5.00;2.80;;;13.80;99.90;;;;;;5034424;28;20804;-80
2021/11/20 10:31:12;;;;;;;2.97;2.77;;;13.80;99.90;;;;;;5020247;28;20457;-80
2021/11/20 10:33:43;;;;;;;6.67;3.47;;;13.80;99.90;;;;;;5034288;28;20449;-81
2021/11/20 10:36:14;;;;;;;5.60;3.20;;;13.80;99.90;;;;;;5034253;28;20541;-81
2021/11/20 10:38:44;;;;;;;5.33;3.40;;;13.90;99.90;;;;;;5033960;28;20555;-80
2021/11/20 10:41:13;;;;;;;4.73;3.30;;;14.10;99.90;;;;;;5034129;28;20888;-79
2021/11/20 10:43:42;;;;;;;6.73;3.20;;;14.10;99.90;;;;;;5033608;28;21295;-81
2021/11/20 10:46:30;;;;;;;3.47;3.17;;;14.20;99.90;;;;;;5033888;28;20481;-81
2021/11/20 10:49:17;;;;;;;4.90;3.10;;;14.20;99.90;;;;;;5018994;28;20489;-81
2021/11/20 10:51:55;;;;;;;5.47;3.60;;;14.20;99.90;;;;;;5033716;28;20540;-81
2021/11/20 10:54:59;;;;;;;5.53;4.10;;;14.20;99.90;;;;;;5034041;28;20449;-79
2021/11/20 10:57:51;;;;;;;6.00;4.00;;;14.20;99.90;;;;;;5033771;28;20481;-88
2021/11/20 11:00:28;;;;;;;5.20;4.00;;;14.20;99.90;;;;;;5032992;28;20544;-82
2021/11/20 11:03:33;;;;;;;6.00;3.53;;;14.20;99.90;;;;;;5018685;28;20529;-82
2021/11/20 11:06:37;;;;;;;5.73;3.70;;;14.10;99.90;;;;;;5033740;28;20441;-84
2021/11/20 11:09:22;;;;;;;7.60;4.50;;;14.00;99.90;;;;;;5019635;28;20445;-81
2021/11/20 11:11:54;;;;;;;6.53;4.37;;;13.90;99.90;;;;;;5033684;28;20476;-82
2021/11/20 11:14:50;;;;;;;6.63;5.33;;;13.90;99.90;;;;;;5029897;28;20515;-82
2021/11/20 11:17:36;;;;;;;4.90;4.60;;;13.90;99.90;;;;;;5022061;28;20504;-83
2021/11/20 11:20:10;;;;;;;5.87;4.20;;;14.00;99.90;;;;;;5033370;28;20532;-86
2021/11/20 11:22:40;;;;;;;5.43;4.80;;;14.10;99.90;;;;;;5033108;28;20444;-85
2021/11/20 11:25:16;;;;;;;6.80;4.80;;;14.20;99.90;;;;;;5032884;28;20528;-85
2021/11/20 11:28:09;;;;;;;4.70;4.30;;;14.20;99.90;;;;;;5033287;28;20858;-83
2021/11/20 11:30:39;;;;;;;5.40;4.30;;;14.20;99.90;;;;;;5033366;28;20484;-84
2021/11/20 11:33:06;;;;;;;5.57;4.60;;;14.20;99.90;;;;;;5032929;28;20484;-82
2021/11/20 11:35:38;;;;;;;6.00;4.60;;;14.30;99.90;;;;;;5023130;28;20536;-87
2021/11/20 11:38:47;;;;;;;5.13;4.60;;;14.30;99.90;;;;;;5032895;28;20469;-84
2021/11/20 11:41:21;;;;;;;6.40;4.93;;;14.20;99.90;;;;;;5029382;28;20535;-86
2021/11/20 11:44:06;;;;;;;4.90;4.40;;;14.20;99.90;;;;;;5032600;28;20449;-86
2021/11/20 11:46:46;;;;;;;6.07;5.40;;;14.20;99.90;;;;;;5032599;28;20941;-86
2021/11/20 11:49:47;;;;;;;7.90;5.30;;;14.10;99.90;;;;;;5032835;28;20511;-87
2021/11/20 11:52:31;;;;;;;11.47;6.70;;;14.00;99.90;;;;;;5030070;28;20540;-86
2021/11/20 11:55:17;;;;;;;10.50;6.00;;;14.00;99.90;;;;;;5030840;28;20455;-85
2021/11/20 11:57:57;;;;;;;6.30;5.80;;;13.90;99.90;;;;;;5032102;28;20578;-84
2021/11/20 12:00:32;;;;;;;8.53;6.33;;;13.90;99.90;;;;;;5032387;28;20483;-87
2021/11/20 12:03:02;;;;;;;6.50;5.40;;;13.90;99.90;;;;;;5032644;28;20433;-86
2021/11/20 12:05:38;;;;;;;8.30;6.30;;;13.80;99.90;;;;;;5032693;28;20445;-86
2021/11/20 12:08:36;;;;;;;7.90;5.60;;;13.80;99.90;;;;;;5032343;28;20481;-84
2021/11/20 12:11:07;;;;;;;6.87;6.17;;;13.80;99.90;;;;;;5020975;28;20456;-83
2021/11/20 12:13:39;;;;;;;6.37;5.77;;;13.70;99.90;;;;;;5032405;28;20532;-84
2021/11/20 12:16:12;;;;;;;6.80;6.10;;;13.80;99.90;;;;;;5032351;28;20441;-83
2021/11/20 12:18:54;;;;;;;9.63;5.90;;;13.70;99.90;;;;;;5029959;28;20481;-85
2021/11/20 12:21:38;;;;;;;9.27;5.70;;;13.70;99.90;;;;;;5025571;28;21010;-86
2021/11/20 12:24:26;;;;;;;7.50;6.10;;;13.70;99.90;;;;;;5032344;28;20449;-84
2021/11/20 12:26:59;;;;;;;7.00;6.30;;;13.70;99.90;;;;;;5019384;28;20557;-83
2021/11/20 12:29:49;;;;;;;6.50;6.00;;;13.70;99.90;;;;;;5032211;28;20473;-85
2021/11/20 12:33:05;;;;;;;6.43;5.83;;;13.70;99.90;;;;;;5031998;28;20991;-84
2021/11/20 12:35:59;;;;;;;7.80;6.83;;;13.70;99.90;;;;;;5019814;28;20484;-86
2021/11/20 12:38:37;;;;;;;8.80;6.43;;;13.70;99.90;;;;;;5032386;28;20477;-87
2021/11/20 12:41:15;;;;;;;6.80;6.10;;;13.60;99.90;;;;;;5032214;28;20461;-86
2021/11/20 12:44:14;;;;;;;8.53;6.90;;;13.60;99.90;;;;;;5033935;28;20531;-87
2021/11/20 12:46:53;;;;;;;8.43;6.30;;;13.60;99.90;;;;;;5025042;28;21299;-86
2021/11/20 12:49:31;;;;;;;8.13;6.03;;;13.70;99.90;;;;;;5034601;28;20460;-86
2021/11/20 12:52:03;;;;;;;10.43;6.63;;;13.70;99.90;;;;;;5034340;28;20499;-87
2021/11/20 12:54:53;;;;;;;7.40;6.30;;;13.80;99.90;;;;;;5033448;28;20449;-87
2021/11/20 12:57:25;;;;;;;6.70;6.20;;;13.90;99.90;;;;;;5036226;28;20999;-83
2021/11/20 12:59:56;;;;;;;7.70;6.10;;;13.90;99.90;;;;;;5036049;28;20449;-84
2021/11/20 13:02:45;;;;;;;6.20;5.60;;;14.00;99.90;;;;;;5032390;28;20510;-84
2021/11/20 13:05:17;;;;;;;8.63;6.87;;;14.00;99.90;;;;;;5042348;28;20548;-85
2021/11/20 13:07:52;;;;;;;6.87;6.17;;;14.00;99.90;;;;;;5036317;28;20449;-85